createdAt,value
2023-03-13T00:00:08.291Z,93
2023-03-13T00:00:39.881Z,93
2023-03-13T00:01:11.718Z,93
2023-03-13T00:01:43.669Z,93
2023-03-13T00:01:59.765Z,93
2023-03-13T00:02:43.668Z,93
2023-03-13T00:03:15.696Z,93
2023-03-13T00:03:47.501Z,93
2023-03-13T00:04:19.416Z,93
2023-03-13T00:04:51.566Z,93
2023-03-13T00:05:23.841Z,93
2023-03-13T00:05:55.646Z,93
2023-03-13T00:06:27.650Z,93
2023-03-13T00:06:59.412Z,93
2023-03-13T00:07:31.451Z,93
2023-03-13T00:08:04.211Z,93
2023-03-13T00:08:35.345Z,93
2023-03-13T00:09:07.455Z,93
2023-03-13T00:09:39.409Z,93
2023-03-13T00:10:11.590Z,93
2023-03-13T00:10:43.343Z,93
2023-03-13T00:10:59.601Z,93
2023-03-13T00:11:31.281Z,93
2023-03-13T00:11:47.396Z,93
2023-03-13T00:12:19.461Z,93
2023-03-13T00:12:51.132Z,93
2023-03-13T00:13:23.295Z,93
2023-03-13T00:13:55.324Z,93
2023-03-13T00:14:27.194Z,93
2023-03-13T00:14:58.977Z,93
2023-03-13T00:15:16.778Z,93
2023-03-13T00:15:47.079Z,93
2023-03-13T00:16:31.300Z,93
2023-03-13T00:17:03.861Z,93
2023-03-13T00:17:34.918Z,93
2023-03-13T00:18:07.059Z,93
2023-03-13T00:18:38.937Z,93
2023-03-13T00:19:10.791Z,93
2023-03-13T00:19:42.854Z,93
2023-03-13T00:20:15.186Z,93
2023-03-13T00:20:46.975Z,93
2023-03-13T00:21:18.686Z,93
2023-03-13T00:21:50.728Z,93
2023-03-13T00:22:22.863Z,93
2023-03-13T00:22:54.871Z,93
2023-03-13T00:23:26.686Z,93
2023-03-13T00:23:58.684Z,93
2023-03-13T00:24:30.822Z,93
2023-03-13T00:25:03.965Z,93
2023-03-13T00:25:34.549Z,93
2023-03-13T00:26:06.670Z,93
2023-03-13T00:26:38.530Z,93
2023-03-13T00:27:10.522Z,93
2023-03-13T00:27:42.603Z,93
2023-03-13T00:28:14.377Z,93
2023-03-13T00:28:32.509Z,93
2023-03-13T00:29:14.542Z,93
2023-03-13T00:29:46.568Z,93
2023-03-13T00:30:18.875Z,93
2023-03-13T00:30:50.467Z,93
2023-03-13T00:31:22.696Z,93
2023-03-13T00:31:54.519Z,93
2023-03-13T00:32:26.403Z,93
2023-03-13T00:32:58.742Z,93
2023-03-13T00:33:30.383Z,93
2023-03-13T00:34:02.990Z,93
2023-03-13T00:34:34.334Z,93
2023-03-13T00:35:06.709Z,93
2023-03-13T00:35:38.272Z,93
2023-03-13T00:36:10.330Z,93
2023-03-13T00:36:42.252Z,93
2023-03-13T00:36:58.557Z,93
2023-03-13T00:37:42.236Z,93
2023-03-13T00:37:58.550Z,93
2023-03-13T00:38:42.254Z,93
2023-03-13T00:39:14.163Z,93
2023-03-13T00:39:46.052Z,93
2023-03-13T00:40:18.390Z,93
2023-03-13T00:40:50.047Z,93
2023-03-13T00:41:22.147Z,93
2023-03-13T00:41:53.842Z,93
2023-03-13T00:42:25.914Z,93
2023-03-13T00:42:58.159Z,93
2023-03-13T00:43:29.957Z,93
2023-03-13T00:44:02.320Z,93
2023-03-13T00:44:34.159Z,93
2023-03-13T00:45:06.860Z,93
2023-03-13T00:45:38.067Z,93
2023-03-13T00:46:09.646Z,93
2023-03-13T00:46:41.658Z,93
2023-03-13T00:46:58.095Z,93
2023-03-13T00:47:29.531Z,93
2023-03-13T00:47:45.830Z,93
2023-03-13T00:48:17.626Z,93
2023-03-13T00:48:49.655Z,93
2023-03-13T00:49:21.645Z,93
2023-03-13T00:49:53.777Z,93
2023-03-13T00:50:25.742Z,93
2023-03-13T00:50:57.819Z,93
2023-03-13T00:51:13.798Z,93
2023-03-13T00:51:45.485Z,93
2023-03-13T00:52:29.566Z,93
2023-03-13T00:53:01.598Z,93
2023-03-13T00:53:17.507Z,93
2023-03-13T00:53:49.349Z,93
2023-03-13T00:54:33.641Z,93
2023-03-13T00:55:05.861Z,93
2023-03-13T00:55:37.642Z,93
2023-03-13T00:56:09.375Z,93
2023-03-13T00:56:41.279Z,93
2023-03-13T00:57:13.429Z,93
2023-03-13T00:57:45.164Z,93
2023-03-13T00:58:17.294Z,93
2023-03-13T00:58:49.384Z,93
2023-03-13T00:59:21.111Z,93
2023-03-13T00:59:53.124Z,93
2023-03-13T01:00:25.685Z,93
2023-03-13T01:00:57.491Z,93
2023-03-13T01:01:29.086Z,93
2023-03-13T01:01:45.199Z,93
2023-03-13T01:02:17.290Z,93
2023-03-13T01:03:01.461Z,93
2023-03-13T01:03:33.157Z,93
2023-03-13T01:04:05.375Z,93
2023-03-13T01:04:37.259Z,93
2023-03-13T01:05:09.246Z,93
2023-03-13T01:05:40.958Z,93
2023-03-13T01:06:12.919Z,93
2023-03-13T01:06:28.962Z,93
2023-03-13T01:07:12.977Z,93
2023-03-13T01:07:44.848Z,93
2023-03-13T01:08:16.986Z,93
2023-03-13T01:08:48.819Z,93
2023-03-13T01:09:20.806Z,93
2023-03-13T01:09:52.947Z,93
2023-03-13T01:10:25.186Z,93
2023-03-13T01:10:56.611Z,93
2023-03-13T01:11:12.917Z,93
2023-03-13T01:11:44.938Z,93
2023-03-13T01:12:28.929Z,93
2023-03-13T01:13:01.111Z,93
2023-03-13T01:13:32.512Z,93
2023-03-13T01:14:05.117Z,93
2023-03-13T01:14:36.666Z,93
2023-03-13T01:15:09.531Z,93
2023-03-13T01:15:40.456Z,93
2023-03-13T01:15:57.099Z,93
2023-03-13T01:16:40.499Z,93
2023-03-13T01:16:56.818Z,93
2023-03-13T01:17:40.501Z,93
2023-03-13T01:18:12.573Z,93
2023-03-13T01:18:44.425Z,93
2023-03-13T01:19:00.529Z,93
2023-03-13T01:19:44.321Z,93
2023-03-13T01:20:16.766Z,93
2023-03-13T01:20:48.274Z,93
2023-03-13T01:21:20.329Z,93
2023-03-13T01:21:52.381Z,93
2023-03-13T01:22:24.406Z,93
2023-03-13T01:22:56.281Z,93
2023-03-13T01:23:28.423Z,93
2023-03-13T01:23:44.359Z,93
2023-03-13T01:24:16.077Z,93
2023-03-13T01:25:00.201Z,93
2023-03-13T01:25:32.318Z,93
2023-03-13T01:26:04.826Z,93
2023-03-13T01:26:36.216Z,93
2023-03-13T01:27:08.354Z,93
2023-03-13T01:27:40.071Z,93
2023-03-13T01:28:11.915Z,93
2023-03-13T01:28:28.394Z,93
2023-03-13T01:29:11.971Z,93
2023-03-13T01:29:44.008Z,93
2023-03-13T01:30:16.551Z,93
2023-03-13T01:30:47.958Z,93
2023-03-13T01:31:20.031Z,93
2023-03-13T01:31:51.971Z,93
2023-03-13T01:32:23.745Z,93
2023-03-13T01:32:55.866Z,93
2023-03-13T01:33:27.868Z,93
2023-03-13T01:33:59.788Z,93
2023-03-13T01:34:31.628Z,93
2023-03-13T01:35:04.678Z,93
2023-03-13T01:35:35.840Z,93
2023-03-13T01:36:07.879Z,93
2023-03-13T01:36:39.485Z,93
2023-03-13T01:36:55.725Z,93
2023-03-13T01:37:39.473Z,93
2023-03-13T01:37:55.812Z,93
2023-03-13T01:38:39.610Z,93
2023-03-13T01:39:11.578Z,93
2023-03-13T01:39:43.756Z,93
2023-03-13T01:40:15.680Z,93
2023-03-13T01:40:47.528Z,93
2023-03-13T01:41:19.576Z,93
2023-03-13T01:41:51.360Z,93
2023-03-13T01:42:23.429Z,93
2023-03-13T01:42:55.619Z,93
2023-03-13T01:43:27.863Z,93
2023-03-13T01:43:59.260Z,93
2023-03-13T01:44:31.307Z,93
2023-03-13T01:45:06.089Z,93
2023-03-13T01:45:35.387Z,93
2023-03-13T01:46:07.596Z,93
2023-03-13T01:46:39.168Z,93
2023-03-13T01:46:55.461Z,93
2023-03-13T01:47:27.290Z,93
2023-03-13T01:47:43.427Z,93
2023-03-13T01:48:15.078Z,93
2023-03-13T01:48:47.324Z,93
2023-03-13T01:49:19.189Z,93
2023-03-13T01:49:51.204Z,93
2023-03-13T01:50:23.368Z,93
2023-03-13T01:50:55.103Z,93
2023-03-13T01:51:27.061Z,93
2023-03-13T01:51:59.141Z,93
2023-03-13T01:52:30.996Z,93
2023-03-13T01:53:03.260Z,93
2023-03-13T01:53:35.155Z,93
2023-03-13T01:54:07.334Z,93
2023-03-13T01:54:38.841Z,93
2023-03-13T01:54:54.957Z,93
2023-03-13T01:55:39.143Z,93
2023-03-13T01:56:10.884Z,93
2023-03-13T01:56:43.039Z,93
2023-03-13T01:57:14.684Z,93
2023-03-13T01:57:46.971Z,93
2023-03-13T01:58:18.820Z,93
2023-03-13T01:58:50.772Z,93
2023-03-13T01:59:22.766Z,93
2023-03-13T01:59:54.748Z,93
2023-03-13T02:00:27.145Z,93
2023-03-13T02:00:58.811Z,93
2023-03-13T02:01:30.705Z,93
2023-03-13T02:02:03.524Z,93
2023-03-13T02:02:34.713Z,93
2023-03-13T02:03:06.640Z,93
2023-03-13T02:03:38.641Z,93
2023-03-13T02:04:10.611Z,93
2023-03-13T02:04:42.564Z,93
2023-03-13T02:05:14.709Z,93
2023-03-13T02:05:46.861Z,93
2023-03-13T02:06:18.446Z,93
2023-03-13T02:06:50.554Z,93
2023-03-13T02:07:22.677Z,93
2023-03-13T02:07:54.308Z,93
2023-03-13T02:08:26.599Z,93
2023-03-13T02:08:58.591Z,93
2023-03-13T02:09:30.124Z,93
2023-03-13T02:10:03.222Z,93
2023-03-13T02:10:34.409Z,93
2023-03-13T02:11:06.309Z,93
2023-03-13T02:11:38.373Z,93
2023-03-13T02:11:54.326Z,92
2023-03-13T02:12:38.207Z,93
2023-03-13T02:12:54.393Z,93
2023-03-13T02:13:38.412Z,93
2023-03-13T02:14:10.210Z,93
2023-03-13T02:14:41.964Z,93
2023-03-13T02:15:15.424Z,93
2023-03-13T02:15:46.089Z,93
2023-03-13T02:16:18.176Z,93
2023-03-13T02:16:49.957Z,93
2023-03-13T02:17:22.004Z,93
2023-03-13T02:17:53.964Z,93
2023-03-13T02:18:25.895Z,93
2023-03-13T02:18:41.936Z,93
2023-03-13T02:19:14.005Z,93
2023-03-13T02:19:57.898Z,93
2023-03-13T02:20:30.160Z,93
2023-03-13T02:21:02.361Z,93
2023-03-13T02:21:33.804Z,93
2023-03-13T02:22:05.788Z,93
2023-03-13T02:22:37.982Z,93
2023-03-13T02:23:09.744Z,92
2023-03-13T02:23:41.634Z,93
2023-03-13T02:24:13.744Z,93
2023-03-13T02:24:45.618Z,93
2023-03-13T02:25:17.949Z,93
2023-03-13T02:25:49.658Z,93
2023-03-13T02:26:21.521Z,93
2023-03-13T02:26:53.713Z,93
2023-03-13T02:27:25.709Z,93
2023-03-13T02:27:57.637Z,93
2023-03-13T02:28:13.771Z,93
2023-03-13T02:28:45.299Z,93
2023-03-13T02:29:29.581Z,93
2023-03-13T02:30:04.204Z,93
2023-03-13T02:30:33.367Z,93
2023-03-13T02:31:05.716Z,92
2023-03-13T02:31:37.661Z,92
2023-03-13T02:32:09.327Z,92
2023-03-13T02:32:41.357Z,92
2023-03-13T02:33:13.576Z,92
2023-03-13T02:33:45.332Z,93
2023-03-13T02:34:17.502Z,93
2023-03-13T02:34:49.199Z,92
2023-03-13T02:35:21.471Z,92
2023-03-13T02:35:53.596Z,93
2023-03-13T02:36:25.316Z,92
2023-03-13T02:36:57.214Z,92
2023-03-13T02:37:29.204Z,92
2023-03-13T02:38:01.393Z,92
2023-03-13T02:38:33.175Z,92
2023-03-13T02:39:05.590Z,92
2023-03-13T02:39:37.375Z,92
2023-03-13T02:40:09.400Z,92
2023-03-13T02:40:41.122Z,92
2023-03-13T02:41:13.035Z,92
2023-03-13T02:41:44.985Z,92
2023-03-13T02:42:17.013Z,92
2023-03-13T02:42:48.964Z,92
2023-03-13T02:43:20.969Z,92
2023-03-13T02:43:53.010Z,92
2023-03-13T02:44:24.864Z,92
2023-03-13T02:44:56.993Z,92
2023-03-13T02:45:29.263Z,92
2023-03-13T02:46:00.740Z,92
2023-03-13T02:46:32.942Z,92
2023-03-13T02:47:05.464Z,92
2023-03-13T02:47:36.742Z,92
2023-03-13T02:48:08.811Z,92
2023-03-13T02:48:40.781Z,92
2023-03-13T02:49:12.655Z,92
2023-03-13T02:49:44.709Z,92
2023-03-13T02:50:16.921Z,92
2023-03-13T02:50:48.515Z,92
2023-03-13T02:51:20.681Z,92
2023-03-13T02:51:52.719Z,92
2023-03-13T02:52:08.791Z,92
2023-03-13T02:52:52.641Z,92
2023-03-13T02:53:24.558Z,92
2023-03-13T02:53:56.590Z,92
2023-03-13T02:54:28.627Z,92
2023-03-13T02:55:00.623Z,92
2023-03-13T02:55:32.425Z,92
2023-03-13T02:56:05.145Z,92
2023-03-13T02:56:36.234Z,92
2023-03-13T02:56:52.685Z,92
2023-03-13T02:57:24.497Z,92
2023-03-13T02:58:08.485Z,92
2023-03-13T02:58:49.292Z,92
2023-03-13T02:59:12.125Z,92
2023-03-13T02:59:44.249Z,92
2023-03-13T03:00:17.655Z,92
2023-03-13T03:00:48.281Z,92
2023-03-13T03:01:20.123Z,92
2023-03-13T03:01:52.128Z,92
2023-03-13T03:02:24.131Z,92
2023-03-13T03:02:56.218Z,92
2023-03-13T03:03:28.070Z,92
2023-03-13T03:03:59.990Z,92
2023-03-13T03:04:32.030Z,92
2023-03-13T03:05:04.735Z,92
2023-03-13T03:05:35.930Z,92
2023-03-13T03:05:53.671Z,92
2023-03-13T03:06:35.902Z,92
2023-03-13T03:07:08.294Z,92
2023-03-13T03:07:40.049Z,92
2023-03-13T03:08:11.925Z,92
2023-03-13T03:08:44.096Z,92
2023-03-13T03:09:15.833Z,92
2023-03-13T03:09:47.950Z,92
2023-03-13T03:10:20.139Z,92
2023-03-13T03:10:51.817Z,92
2023-03-13T03:11:23.849Z,92
2023-03-13T03:11:55.893Z,92
2023-03-13T03:12:27.674Z,92
2023-03-13T03:12:59.608Z,92
2023-03-13T03:13:31.779Z,92
2023-03-13T03:14:04.376Z,92
2023-03-13T03:14:35.481Z,92
2023-03-13T03:15:08.766Z,92
2023-03-13T03:15:39.525Z,92
2023-03-13T03:16:11.641Z,92
2023-03-13T03:16:43.674Z,92
2023-03-13T03:17:15.438Z,92
2023-03-13T03:17:47.757Z,92
2023-03-13T03:18:19.461Z,92
2023-03-13T03:18:51.331Z,92
2023-03-13T03:19:07.886Z,92
2023-03-13T03:19:39.471Z,92
2023-03-13T03:20:23.716Z,92
2023-03-13T03:20:55.233Z,92
2023-03-13T03:21:27.289Z,92
2023-03-13T03:21:59.386Z,92
2023-03-13T03:22:31.357Z,91
2023-03-13T03:23:03.622Z,91
2023-03-13T03:23:19.246Z,92
2023-03-13T03:23:51.308Z,92
2023-03-13T03:24:35.299Z,92
2023-03-13T03:25:07.609Z,92
2023-03-13T03:25:39.133Z,92
2023-03-13T03:26:11.158Z,91
2023-03-13T03:26:43.176Z,92
2023-03-13T03:27:15.376Z,92
2023-03-13T03:27:47.052Z,91
2023-03-13T03:28:18.976Z,92
2023-03-13T03:28:51.035Z,92
2023-03-13T03:29:23.227Z,92
2023-03-13T03:29:55.091Z,92
2023-03-13T03:30:27.351Z,92
2023-03-13T03:30:59.060Z,92
2023-03-13T03:31:30.957Z,92
2023-03-13T03:32:03.535Z,92
2023-03-13T03:32:34.953Z,92
2023-03-13T03:32:51.097Z,92
2023-03-13T03:33:22.896Z,92
2023-03-13T03:33:39.146Z,92
2023-03-13T03:34:11.971Z,92
2023-03-13T03:34:43.364Z,92
2023-03-13T03:35:15.034Z,92
2023-03-13T03:35:46.837Z,92
2023-03-13T03:36:18.457Z,92
2023-03-13T03:36:50.707Z,92
2023-03-13T03:37:06.654Z,92
2023-03-13T03:37:38.580Z,92
2023-03-13T03:38:22.963Z,92
2023-03-13T03:38:54.458Z,92
2023-03-13T03:39:26.507Z,92
2023-03-13T03:39:58.693Z,92
2023-03-13T03:40:30.769Z,92
2023-03-13T03:41:03.025Z,92
2023-03-13T03:41:34.453Z,92
2023-03-13T03:41:50.642Z,92
2023-03-13T03:42:34.432Z,92
2023-03-13T03:43:06.555Z,92
2023-03-13T03:43:38.538Z,92
2023-03-13T03:44:10.297Z,92
2023-03-13T03:44:42.389Z,92
2023-03-13T03:45:15.282Z,92
2023-03-13T03:45:46.100Z,92
2023-03-13T03:46:18.422Z,92
2023-03-13T03:46:50.457Z,92
2023-03-13T03:47:22.442Z,92
2023-03-13T03:47:54.252Z,92
2023-03-13T03:48:26.214Z,92
2023-03-13T03:48:58.304Z,92
2023-03-13T03:49:30.093Z,92
2023-03-13T03:50:03.745Z,92
2023-03-13T03:50:34.080Z,92
2023-03-13T03:51:06.270Z,92
2023-03-13T03:51:38.348Z,93
2023-03-13T03:52:09.885Z,93
2023-03-13T03:52:41.998Z,93
2023-03-13T03:53:14.109Z,93
2023-03-13T03:53:45.909Z,93
2023-03-13T03:54:18.005Z,93
2023-03-13T03:54:50.105Z,93
2023-03-13T03:55:22.337Z,93
2023-03-13T03:55:53.951Z,92
2023-03-13T03:56:25.840Z,93
2023-03-13T03:56:57.950Z,92
2023-03-13T03:57:29.996Z,92
2023-03-13T03:58:02.430Z,92
2023-03-13T03:58:33.741Z,92
2023-03-13T03:59:05.892Z,91
2023-03-13T03:59:37.978Z,91
2023-03-13T04:00:10.856Z,90
2023-03-13T04:00:41.762Z,89
2023-03-13T04:01:13.533Z,88
2023-03-13T04:01:45.667Z,88
2023-03-13T04:02:17.860Z,87
2023-03-13T04:02:49.428Z,86
2023-03-13T04:03:05.755Z,84
2023-03-13T04:03:49.605Z,83
2023-03-13T04:04:21.662Z,83
2023-03-13T04:04:53.768Z,83
2023-03-13T04:05:25.670Z,83
2023-03-13T04:05:57.759Z,83
2023-03-13T04:06:29.493Z,83
2023-03-13T04:07:01.613Z,83
2023-03-13T04:07:33.435Z,83
2023-03-13T04:08:05.694Z,83
2023-03-13T04:08:37.139Z,82
2023-03-13T04:09:09.553Z,82
2023-03-13T04:09:41.419Z,82
2023-03-13T04:10:13.514Z,82
2023-03-13T04:10:45.209Z,82
2023-03-13T04:11:17.330Z,81
2023-03-13T04:11:49.191Z,82
2023-03-13T04:12:21.574Z,81
2023-03-13T04:12:53.194Z,81
2023-03-13T04:13:09.630Z,81
2023-03-13T04:13:41.248Z,81
2023-03-13T04:14:25.046Z,80
2023-03-13T04:14:57.066Z,79
2023-03-13T04:15:29.558Z,79
2023-03-13T04:16:01.313Z,79
2023-03-13T04:16:33.121Z,79
2023-03-13T04:17:05.124Z,80
2023-03-13T04:17:36.866Z,80
2023-03-13T04:18:09.219Z,79
2023-03-13T04:18:40.955Z,79
2023-03-13T04:19:12.919Z,79
2023-03-13T04:19:44.903Z,79
2023-03-13T04:20:17.122Z,79
2023-03-13T04:20:48.874Z,79
2023-03-13T04:21:20.775Z,79
2023-03-13T04:21:36.835Z,79
2023-03-13T04:22:08.921Z,79
2023-03-13T04:22:52.761Z,79
2023-03-13T04:23:24.898Z,79
2023-03-13T04:23:56.751Z,79
2023-03-13T04:24:28.782Z,79
2023-03-13T04:25:01.133Z,80
2023-03-13T04:25:32.816Z,80
2023-03-13T04:26:04.972Z,80
2023-03-13T04:26:20.836Z,80
2023-03-13T04:27:04.933Z,80
2023-03-13T04:27:36.598Z,80
2023-03-13T04:28:08.594Z,80
2023-03-13T04:28:40.337Z,80
2023-03-13T04:29:12.421Z,79
2023-03-13T04:29:44.500Z,79
2023-03-13T04:30:18.708Z,79
2023-03-13T04:30:48.647Z,79
2023-03-13T04:31:20.497Z,79
2023-03-13T04:31:52.423Z,79
2023-03-13T04:32:24.342Z,79
2023-03-13T04:32:56.397Z,80
2023-03-13T04:33:28.288Z,80
2023-03-13T04:34:00.494Z,80
2023-03-13T04:34:32.240Z,80
2023-03-13T04:34:48.382Z,80
2023-03-13T04:35:32.831Z,80
2023-03-13T04:36:04.685Z,80
2023-03-13T04:36:36.396Z,80
2023-03-13T04:37:08.390Z,80
2023-03-13T04:37:40.054Z,80
2023-03-13T04:38:12.237Z,80
2023-03-13T04:38:44.191Z,80
2023-03-13T04:39:16.003Z,80
2023-03-13T04:39:48.089Z,80
2023-03-13T04:40:20.381Z,80
2023-03-13T04:40:52.152Z,80
2023-03-13T04:41:24.079Z,80
2023-03-13T04:41:55.906Z,80
2023-03-13T04:42:28.049Z,80
2023-03-13T04:43:00.047Z,80
2023-03-13T04:43:31.711Z,80
2023-03-13T04:44:04.650Z,80
2023-03-13T04:44:35.969Z,80
2023-03-13T04:45:09.658Z,80
2023-03-13T04:45:39.856Z,80
2023-03-13T04:46:11.855Z,80
2023-03-13T04:46:43.920Z,80
2023-03-13T04:47:15.794Z,80
2023-03-13T04:47:47.864Z,80
2023-03-13T04:48:04.720Z,80
2023-03-13T04:48:35.609Z,80
2023-03-13T04:49:19.713Z,80
2023-03-13T04:49:51.751Z,80
2023-03-13T04:50:23.832Z,80
2023-03-13T04:50:55.598Z,80
2023-03-13T04:51:27.632Z,80
2023-03-13T04:51:59.626Z,80
2023-03-13T04:52:31.354Z,80
2023-03-13T04:52:49.601Z,80
2023-03-13T04:53:31.310Z,80
2023-03-13T04:54:04.206Z,80
2023-03-13T04:54:35.285Z,80
2023-03-13T04:55:07.614Z,80
2023-03-13T04:55:39.689Z,80
2023-03-13T04:56:11.442Z,80
2023-03-13T04:56:44.376Z,80
2023-03-13T04:57:15.286Z,80
2023-03-13T04:57:47.380Z,80
2023-03-13T04:58:19.380Z,80
2023-03-13T04:58:51.213Z,80
2023-03-13T04:59:23.385Z,81
2023-03-13T04:59:55.280Z,80
2023-03-13T05:00:27.673Z,80
2023-03-13T05:00:59.153Z,80
2023-03-13T05:01:31.234Z,80
2023-03-13T05:01:47.397Z,80
2023-03-13T05:02:19.111Z,80
2023-03-13T05:02:35.207Z,80
2023-03-13T05:03:07.070Z,80
2023-03-13T05:03:39.271Z,80
2023-03-13T05:04:10.988Z,80
2023-03-13T05:04:43.158Z,80
2023-03-13T05:05:15.268Z,80
2023-03-13T05:05:46.862Z,80
2023-03-13T05:06:03.870Z,80
2023-03-13T05:06:34.842Z,80
2023-03-13T05:07:19.081Z,80
2023-03-13T05:07:50.852Z,80
2023-03-13T05:08:07.064Z,80
2023-03-13T05:08:38.833Z,80
2023-03-13T05:09:22.870Z,80
2023-03-13T05:09:54.869Z,80
2023-03-13T05:10:26.954Z,80
2023-03-13T05:10:58.701Z,80
2023-03-13T05:11:30.685Z,80
2023-03-13T05:12:03.979Z,80
2023-03-13T05:12:34.590Z,80
2023-03-13T05:13:06.683Z,80
2023-03-13T05:13:38.720Z,80
2023-03-13T05:14:10.661Z,80
2023-03-13T05:14:42.560Z,80
2023-03-13T05:15:15.857Z,80
2023-03-13T05:15:46.661Z,80
2023-03-13T05:16:18.792Z,80
2023-03-13T05:16:50.424Z,80
2023-03-13T05:17:22.530Z,80
2023-03-13T05:17:54.858Z,80
2023-03-13T05:18:26.609Z,80
2023-03-13T05:18:58.621Z,80
2023-03-13T05:19:30.405Z,80
2023-03-13T05:20:03.630Z,80
2023-03-13T05:20:34.484Z,80
2023-03-13T05:21:06.327Z,80
2023-03-13T05:21:38.459Z,80
2023-03-13T05:22:10.392Z,80
2023-03-13T05:22:42.463Z,80
2023-03-13T05:23:14.082Z,80
2023-03-13T05:23:46.185Z,80
2023-03-13T05:24:03.188Z,80
2023-03-13T05:24:34.232Z,80
2023-03-13T05:25:18.754Z,80
2023-03-13T05:25:50.017Z,80
2023-03-13T05:26:22.248Z,80
2023-03-13T05:26:54.176Z,80
2023-03-13T05:27:26.126Z,80
2023-03-13T05:27:58.118Z,80
2023-03-13T05:28:14.246Z,80
2023-03-13T05:28:46.059Z,80
2023-03-13T05:29:02.712Z,80
2023-03-13T05:29:34.543Z,80
2023-03-13T05:30:06.911Z,80
2023-03-13T05:30:37.979Z,80
2023-03-13T05:31:10.241Z,80
2023-03-13T05:31:42.051Z,80
2023-03-13T05:32:13.807Z,80
2023-03-13T05:32:45.952Z,80
2023-03-13T05:33:02.324Z,80
2023-03-13T05:33:45.905Z,80
2023-03-13T05:34:17.874Z,80
2023-03-13T05:34:49.601Z,80
2023-03-13T05:35:22.098Z,80
2023-03-13T05:35:54.225Z,80
2023-03-13T05:36:25.582Z,80
2023-03-13T05:36:57.663Z,80
2023-03-13T05:37:29.635Z,80
2023-03-13T05:38:01.898Z,80
2023-03-13T05:38:33.602Z,80
2023-03-13T05:39:05.571Z,81
2023-03-13T05:39:37.776Z,80
2023-03-13T05:40:09.930Z,80
2023-03-13T05:40:41.330Z,80
2023-03-13T05:41:13.467Z,80
2023-03-13T05:41:45.534Z,80
2023-03-13T05:42:19.993Z,80
2023-03-13T05:42:49.476Z,80
2023-03-13T05:43:21.391Z,80
2023-03-13T05:43:53.453Z,80
2023-03-13T05:44:25.389Z,80
2023-03-13T05:44:57.474Z,80
2023-03-13T05:45:29.678Z,80
2023-03-13T05:45:45.482Z,80
2023-03-13T05:46:29.230Z,80
2023-03-13T05:47:03.971Z,80
2023-03-13T05:47:33.473Z,81
2023-03-13T05:48:05.331Z,81
2023-03-13T05:48:21.498Z,81
2023-03-13T05:48:53.157Z,81
2023-03-13T05:49:37.486Z,81
2023-03-13T05:50:09.250Z,80
2023-03-13T05:50:40.944Z,80
2023-03-13T05:51:13.084Z,80
2023-03-13T05:51:45.156Z,80
2023-03-13T05:52:16.915Z,81
2023-03-13T05:52:33.160Z,80
2023-03-13T05:53:05.352Z,80
2023-03-13T05:53:49.173Z,80
2023-03-13T05:54:21.175Z,80
2023-03-13T05:54:53.071Z,80
2023-03-13T05:55:25.428Z,80
2023-03-13T05:55:56.942Z,81
2023-03-13T05:56:28.905Z,81
2023-03-13T05:57:01.004Z,81
2023-03-13T05:57:16.884Z,81
2023-03-13T05:58:01.193Z,81
2023-03-13T05:58:32.922Z,81
2023-03-13T05:59:05.171Z,81
2023-03-13T05:59:36.915Z,81
2023-03-13T06:00:09.775Z,81
2023-03-13T06:00:40.912Z,82
2023-03-13T06:01:12.800Z,82
2023-03-13T06:01:44.658Z,82
2023-03-13T06:02:00.919Z,82
2023-03-13T06:02:32.774Z,82
2023-03-13T06:03:16.907Z,82
2023-03-13T06:03:49.148Z,82
2023-03-13T06:04:20.878Z,81
2023-03-13T06:04:55.265Z,81
2023-03-13T06:05:25.067Z,81
2023-03-13T06:05:56.638Z,81
2023-03-13T06:06:28.815Z,81
2023-03-13T06:06:44.761Z,81
2023-03-13T06:07:28.650Z,81
2023-03-13T06:08:00.677Z,81
2023-03-13T06:08:32.685Z,81
2023-03-13T06:09:04.809Z,81
2023-03-13T06:09:36.490Z,80
2023-03-13T06:10:11.203Z,80
2023-03-13T06:10:40.458Z,81
2023-03-13T06:11:12.361Z,81
2023-03-13T06:11:44.365Z,81
2023-03-13T06:12:00.577Z,81
2023-03-13T06:12:44.405Z,81
2023-03-13T06:13:20.103Z,81
2023-03-13T06:13:48.466Z,81
2023-03-13T06:14:20.331Z,81
2023-03-13T06:14:52.355Z,81
2023-03-13T06:15:24.850Z,81
2023-03-13T06:15:56.184Z,81
2023-03-13T06:16:28.338Z,81
2023-03-13T06:16:44.381Z,81
2023-03-13T06:17:16.169Z,81
2023-03-13T06:17:33.325Z,80
2023-03-13T06:18:04.870Z,80
2023-03-13T06:18:36.153Z,80
2023-03-13T06:19:08.303Z,80
2023-03-13T06:19:40.163Z,81
2023-03-13T06:20:12.325Z,81
2023-03-13T06:20:44.143Z,80
2023-03-13T06:21:16.014Z,80
2023-03-13T06:21:48.053Z,80
2023-03-13T06:22:20.118Z,80
2023-03-13T06:22:52.132Z,80
2023-03-13T06:23:23.990Z,80
2023-03-13T06:23:55.961Z,80
2023-03-13T06:24:28.648Z,80
2023-03-13T06:24:59.736Z,80
2023-03-13T06:25:32.166Z,80
2023-03-13T06:26:04.539Z,80
2023-03-13T06:26:35.688Z,80
2023-03-13T06:27:07.945Z,80
2023-03-13T06:27:39.768Z,79
2023-03-13T06:28:11.785Z,79
2023-03-13T06:28:43.757Z,80
2023-03-13T06:28:59.721Z,80
2023-03-13T06:29:43.999Z,80
2023-03-13T06:30:16.897Z,80
2023-03-13T06:30:47.614Z,80
2023-03-13T06:31:19.711Z,80
2023-03-13T06:31:51.884Z,79
2023-03-13T06:32:23.702Z,80
2023-03-13T06:32:55.743Z,79
2023-03-13T06:33:27.840Z,79
2023-03-13T06:33:59.505Z,80
2023-03-13T06:34:31.507Z,80
2023-03-13T06:35:06.764Z,80
2023-03-13T06:35:46.166Z,80
2023-03-13T06:36:07.658Z,80
2023-03-13T06:36:39.583Z,80
2023-03-13T06:37:11.447Z,79
2023-03-13T06:37:43.355Z,79
2023-03-13T06:37:59.545Z,80
2023-03-13T06:38:31.373Z,80
2023-03-13T06:39:15.337Z,80
2023-03-13T06:39:47.408Z,79
2023-03-13T06:40:19.460Z,79
2023-03-13T06:40:51.149Z,79
2023-03-13T06:41:23.365Z,79
2023-03-13T06:41:55.305Z,79
2023-03-13T06:42:26.972Z,79
2023-03-13T06:42:43.325Z,79
2023-03-13T06:43:27.141Z,79
2023-03-13T06:43:59.170Z,79
2023-03-13T06:44:31.001Z,79
2023-03-13T06:45:08.050Z,79
2023-03-13T06:45:35.046Z,79
2023-03-13T06:46:07.198Z,79
2023-03-13T06:46:39.182Z,79
2023-03-13T06:47:12.508Z,79
2023-03-13T06:47:42.943Z,79
2023-03-13T06:48:15.289Z,79
2023-03-13T06:48:48.465Z,79
2023-03-13T06:49:18.926Z,79
2023-03-13T06:49:50.741Z,79
2023-03-13T06:50:25.283Z,79
2023-03-13T06:50:54.685Z,79
2023-03-13T06:51:26.701Z,79
2023-03-13T06:51:58.899Z,79
2023-03-13T06:52:42.891Z,79
2023-03-13T06:53:03.508Z,79
2023-03-13T06:53:34.877Z,79
2023-03-13T06:54:06.704Z,79
2023-03-13T06:54:38.788Z,79
2023-03-13T06:55:10.975Z,79
2023-03-13T06:55:42.435Z,79
2023-03-13T06:55:59.163Z,79
2023-03-13T06:56:30.413Z,79
2023-03-13T06:57:14.661Z,79
2023-03-13T06:57:48.505Z,79
2023-03-13T06:58:30.957Z,79
2023-03-13T06:58:52.350Z,79
2023-03-13T06:59:22.542Z,79
2023-03-13T06:59:54.498Z,79
2023-03-13T07:00:26.964Z,79
2023-03-13T07:00:42.453Z,79
2023-03-13T07:01:26.418Z,79
2023-03-13T07:01:58.518Z,79
2023-03-13T07:02:30.277Z,79
2023-03-13T07:03:02.998Z,79
2023-03-13T07:03:18.448Z,79
2023-03-13T07:03:50.337Z,79
2023-03-13T07:04:34.412Z,79
2023-03-13T07:05:06.681Z,79
2023-03-13T07:05:38.225Z,79
2023-03-13T07:06:10.229Z,79
2023-03-13T07:06:42.307Z,79
2023-03-13T07:07:25.845Z,79
2023-03-13T07:07:35.314Z,79
2023-03-13T07:08:02.458Z,79
2023-03-13T07:08:46.116Z,79
2023-03-13T07:09:18.179Z,79
2023-03-13T07:09:49.895Z,79
2023-03-13T07:10:25.179Z,79
2023-03-13T07:10:53.988Z,79
2023-03-13T07:11:26.024Z,79
2023-03-13T07:11:57.938Z,79
2023-03-13T07:12:29.794Z,79
2023-03-13T07:13:02.535Z,79
2023-03-13T07:13:33.986Z,79
2023-03-13T07:14:16.665Z,79
2023-03-13T07:14:38.017Z,79
2023-03-13T07:15:12.359Z,79
2023-03-13T07:15:41.793Z,79
2023-03-13T07:16:13.963Z,79
2023-03-13T07:16:29.912Z,79
2023-03-13T07:17:13.767Z,79
2023-03-13T07:17:29.827Z,79
2023-03-13T07:18:13.900Z,79
2023-03-13T07:18:45.774Z,79
2023-03-13T07:19:17.526Z,79
2023-03-13T07:19:49.609Z,79
2023-03-13T07:20:22.164Z,79
2023-03-13T07:20:53.881Z,79
2023-03-13T07:21:25.503Z,79
2023-03-13T07:21:57.368Z,79
2023-03-13T07:22:29.755Z,79
2023-03-13T07:23:01.879Z,79
2023-03-13T07:23:33.467Z,79
2023-03-13T07:24:10.843Z,80
2023-03-13T07:24:37.496Z,80
2023-03-13T07:25:10.750Z,80
2023-03-13T07:25:41.279Z,80
2023-03-13T07:25:57.939Z,79
2023-03-13T07:26:48.652Z,79
2023-03-13T07:27:13.569Z,79
2023-03-13T07:27:45.228Z,79
2023-03-13T07:28:17.242Z,79